createdAt,value
2018-03-03T00:00:24.203Z,-6.30
2018-03-03T00:02:56.286Z,-6.30
2018-03-03T00:05:27.453Z,-6.30
2018-03-03T00:07:58.711Z,-6.50
2018-03-03T00:10:29.895Z,-6.40
2018-03-03T00:13:02.121Z,-6.50
2018-03-03T00:15:33.271Z,-6.50
2018-03-03T00:18:04.503Z,-6.30
2018-03-03T00:20:35.692Z,-6.60
2018-03-03T00:23:07.685Z,-6.70
2018-03-03T00:25:38.865Z,-6.70
2018-03-03T00:28:10.095Z,-6.40
2018-03-03T00:30:41.268Z,-6.50
2018-03-03T00:33:12.765Z,-6.60
2018-03-03T00:35:43.945Z,-6.60
2018-03-03T00:38:15.464Z,-6.50
2018-03-03T00:40:46.684Z,-6.40
2018-03-03T00:43:17.920Z,-6.60
2018-03-03T00:45:49.846Z,-6.50
2018-03-03T00:48:21.089Z,-6.50
2018-03-03T00:50:52.281Z,-6.50
2018-03-03T00:53:23.451Z,-6.50
2018-03-03T00:55:54.659Z,-6.60
2018-03-03T00:58:26.586Z,-6.40
2018-03-03T01:00:57.775Z,-6.40
2018-03-03T01:03:28.994Z,-6.30
2018-03-03T01:06:01.173Z,-6.70
2018-03-03T01:08:32.486Z,-6.70
2018-03-03T01:11:04.430Z,-6.50
2018-03-03T01:13:35.668Z,-6.60
2018-03-03T01:16:06.836Z,-6.50
2018-03-03T01:18:38.051Z,-6.60
2018-03-03T01:21:09.260Z,-6.60
2018-03-03T01:23:41.641Z,-6.40
2018-03-03T01:26:12.809Z,-6.50
2018-03-03T01:28:44.041Z,-6.50
2018-03-03T01:31:15.226Z,-6.60
2018-03-03T01:33:47.198Z,-6.80
2018-03-03T01:36:18.384Z,-6.80
2018-03-03T01:38:49.842Z,-6.60
2018-03-03T01:41:21.014Z,-6.70
2018-03-03T01:43:52.433Z,-6.80
2018-03-03T01:46:23.596Z,-6.70
2018-03-03T01:48:54.940Z,-6.60
2018-03-03T01:51:38.557Z,-6.80
2018-03-03T01:54:10.499Z,-6.80
2018-03-03T01:56:41.660Z,-6.90
2018-03-03T01:59:13.169Z,-6.90
2018-03-03T02:01:45.059Z,-6.80
2018-03-03T02:04:16.308Z,-6.80
2018-03-03T02:06:47.859Z,-6.90
2018-03-03T02:09:19.121Z,-6.70
2018-03-03T02:11:50.322Z,-6.90
2018-03-03T02:14:22.658Z,-6.80
2018-03-03T02:16:53.863Z,-6.80
2018-03-03T02:19:25.121Z,-6.90
2018-03-03T02:21:56.367Z,-7.20
2018-03-03T02:24:27.613Z,-7.20
2018-03-03T02:26:58.819Z,-7.10
2018-03-03T02:29:30.151Z,-7.20
2018-03-03T02:32:02.052Z,-7.10
2018-03-03T02:34:33.302Z,-7.10
2018-03-03T02:37:04.515Z,-7.10
2018-03-03T02:39:36.418Z,-7.30
2018-03-03T02:42:07.633Z,-7.30
2018-03-03T02:44:38.827Z,-7.30
2018-03-03T02:47:10.073Z,-7.40
2018-03-03T02:49:41.396Z,-7.30
2018-03-03T02:52:12.585Z,-7.20
2018-03-03T02:54:44.552Z,-7.30
2018-03-03T02:57:16.482Z,-7.40
2018-03-03T02:59:47.705Z,-7.40
2018-03-03T03:02:18.933Z,-7.40
2018-03-03T03:04:50.156Z,-7.50
2018-03-03T03:07:22.056Z,-7.60
2018-03-03T03:09:53.311Z,-7.60
2018-03-03T03:12:24.547Z,-7.40
2018-03-03T03:14:55.803Z,-7.60
2018-03-03T03:17:27.014Z,-7.60
2018-03-03T03:19:58.219Z,-7.50
2018-03-03T03:22:30.151Z,-7.50
2018-03-03T03:25:01.464Z,-7.50
2018-03-03T03:27:32.665Z,-7.50
2018-03-03T03:30:04.963Z,-7.40
2018-03-03T03:32:36.140Z,-7.40
2018-03-03T03:35:07.360Z,-7.30
2018-03-03T03:37:38.593Z,-7.60
2018-03-03T03:40:09.748Z,-7.60
2018-03-03T03:42:40.995Z,-7.70
2018-03-03T03:45:12.172Z,-7.60
2018-03-03T03:47:43.688Z,-7.30
2018-03-03T03:50:14.931Z,-7.50
2018-03-03T03:52:46.479Z,-7.60
2018-03-03T03:55:17.650Z,-7.70
2018-03-03T03:57:48.894Z,-7.60
2018-03-03T04:00:20.123Z,-7.70
2018-03-03T04:02:51.343Z,-7.50
2018-03-03T04:05:23.309Z,-7.40
2018-03-03T04:07:54.488Z,-7.40
2018-03-03T04:10:25.715Z,-7.50
2018-03-03T04:12:56.887Z,-7.50
2018-03-03T04:15:28.896Z,-7.70
2018-03-03T04:18:05.004Z,-7.70
2018-03-03T04:20:36.619Z,-7.70
2018-03-03T04:23:07.850Z,-7.80
2018-03-03T04:25:39.832Z,-7.70
2018-03-03T04:28:11.020Z,-7.70
2018-03-03T04:30:43.316Z,-7.80
2018-03-03T04:33:14.503Z,-7.80
2018-03-03T04:35:46.029Z,-7.60
2018-03-03T04:38:17.238Z,-7.60
2018-03-03T04:40:49.202Z,-7.70
2018-03-03T04:43:21.138Z,-7.70
2018-03-03T04:45:52.386Z,-7.70
2018-03-03T04:48:23.616Z,-7.80
2018-03-03T04:50:54.851Z,-7.80
2018-03-03T04:53:26.042Z,-7.90
2018-03-03T04:55:57.288Z,-7.90
2018-03-03T04:58:34.533Z,-8.00
2018-03-03T05:01:05.713Z,-7.90
2018-03-03T05:03:37.709Z,-7.90
2018-03-03T05:06:16.735Z,-7.90
2018-03-03T05:08:48.017Z,-8.00
2018-03-03T05:11:19.253Z,-7.90
2018-03-03T05:13:50.440Z,-7.90
2018-03-03T05:16:43.396Z,-7.90
2018-03-03T05:19:30.341Z,-7.90
2018-03-03T05:22:17.444Z,-7.90
2018-03-03T05:25:04.432Z,-7.80
2018-03-03T05:27:41.892Z,-8.00
2018-03-03T05:30:28.013Z,-7.90
2018-03-03T05:33:18.941Z,-8.10
2018-03-03T05:36:09.976Z,-8.10
2018-03-03T05:38:59.446Z,-8.20
2018-03-03T05:41:36.860Z,-8.20
2018-03-03T05:44:14.295Z,-8.00
2018-03-03T05:46:47.406Z,-8.00
2018-03-03T05:49:24.658Z,-7.90
2018-03-03T05:52:01.653Z,-8.00
2018-03-03T05:54:39.169Z,-8.00
2018-03-03T05:57:16.499Z,-8.10
2018-03-03T05:59:58.423Z,-8.00
2018-03-03T06:02:35.725Z,-8.00
2018-03-03T06:05:13.163Z,-8.10
2018-03-03T06:07:46.968Z,-8.20
2018-03-03T06:10:37.011Z,-8.20
2018-03-03T06:13:08.305Z,-8.20
2018-03-03T06:15:39.610Z,-8.10
2018-03-03T06:18:10.857Z,-8.10
2018-03-03T06:20:42.072Z,-7.90
2018-03-03T06:23:13.254Z,-8.00
2018-03-03T06:25:44.458Z,-8.00
2018-03-03T06:28:15.672Z,-7.90
2018-03-03T06:30:46.847Z,-8.10
2018-03-03T06:33:18.041Z,-7.90
2018-03-03T06:35:49.336Z,-7.90
2018-03-03T06:38:20.544Z,-7.90
2018-03-03T06:40:52.455Z,-7.80
2018-03-03T06:43:23.799Z,-7.80
2018-03-03T06:45:54.976Z,-7.60
2018-03-03T06:48:26.225Z,-7.90
2018-03-03T06:50:58.164Z,-7.80
2018-03-03T06:53:29.399Z,-7.80
2018-03-03T06:56:00.599Z,-7.80
2018-03-03T06:58:32.534Z,-7.90
2018-03-03T07:01:04.136Z,-7.90
2018-03-03T07:03:35.299Z,-7.70
2018-03-03T07:06:06.545Z,-7.70
2018-03-03T07:08:37.757Z,-7.50
2018-03-03T07:11:08.972Z,-7.50
2018-03-03T07:13:41.645Z,-7.50
2018-03-03T07:16:12.893Z,-7.50
2018-03-03T07:18:44.072Z,-7.60
2018-03-03T07:21:15.303Z,-7.60
2018-03-03T07:23:46.862Z,-7.40
2018-03-03T07:26:18.045Z,-7.30
2018-03-03T07:28:49.253Z,-7.50
2018-03-03T07:31:20.430Z,-7.40
2018-03-03T07:33:51.627Z,-7.40
2018-03-03T07:36:22.862Z,-7.20
2018-03-03T07:38:54.847Z,-6.90
2018-03-03T07:41:26.098Z,-6.90
2018-03-03T07:43:58.128Z,-7.00
2018-03-03T07:46:29.334Z,-7.00
2018-03-03T07:49:00.513Z,-7.00
2018-03-03T07:51:31.728Z,-6.90
2018-03-03T07:54:02.900Z,-6.80
2018-03-03T07:56:46.781Z,-6.80
2018-03-03T07:59:18.000Z,-6.70
2018-03-03T08:01:49.183Z,-6.90
2018-03-03T08:04:20.400Z,-6.80
2018-03-03T08:06:51.591Z,-6.70
2018-03-03T08:09:22.836Z,-6.60
2018-03-03T08:11:54.067Z,-6.40
2018-03-03T08:14:25.263Z,-6.20
2018-03-03T08:16:56.754Z,-6.30
2018-03-03T08:19:27.962Z,-6.30
2018-03-03T08:21:59.136Z,-6.20
2018-03-03T08:24:30.453Z,-6.20
2018-03-03T08:27:01.709Z,-6.20
2018-03-03T08:29:32.891Z,-6.10
2018-03-03T08:32:04.424Z,-6.10
2018-03-03T08:34:35.606Z,-5.90
2018-03-03T08:37:07.655Z,-5.80
2018-03-03T08:39:38.846Z,-5.80
2018-03-03T08:42:10.423Z,-5.70
2018-03-03T08:44:42.072Z,-5.70
2018-03-03T08:47:13.473Z,-5.70
2018-03-03T08:49:45.714Z,-5.60
2018-03-03T08:52:17.086Z,-5.60
2018-03-03T08:54:48.338Z,-5.30
2018-03-03T08:57:20.000Z,-5.40
2018-03-03T08:59:51.297Z,-5.50
2018-03-03T09:02:22.554Z,-5.40
2018-03-03T09:04:53.787Z,-5.20
2018-03-03T09:07:24.991Z,-5.00
2018-03-03T09:09:56.191Z,-5.00
2018-03-03T09:12:27.496Z,-4.70
2018-03-03T09:14:58.730Z,-4.60
2018-03-03T09:17:29.964Z,-4.40
2018-03-03T09:20:01.248Z,-4.20
2018-03-03T09:22:32.504Z,-4.50
2018-03-03T09:25:04.118Z,-4.50
2018-03-03T09:27:35.430Z,-4.70
2018-03-03T09:30:07.420Z,-4.60
2018-03-03T09:32:39.021Z,-4.60
2018-03-03T09:35:10.189Z,-4.40
2018-03-03T09:37:42.227Z,-4.40
2018-03-03T09:40:13.409Z,-4.40
2018-03-03T09:42:45.692Z,-4.20
2018-03-03T09:45:16.924Z,-4.30
2018-03-03T09:47:48.903Z,-3.60
2018-03-03T09:50:20.083Z,-3.70
2018-03-03T09:52:51.332Z,-3.70
2018-03-03T09:55:22.540Z,-3.70
2018-03-03T09:57:53.870Z,-4.00
2018-03-03T10:00:25.176Z,-4.00
2018-03-03T10:02:56.412Z,-3.90
2018-03-03T10:05:27.653Z,-3.90
2018-03-03T10:07:58.881Z,-3.80
2018-03-03T10:10:30.123Z,-3.50
2018-03-03T10:13:01.309Z,-3.40
2018-03-03T10:15:33.269Z,-3.50
2018-03-03T10:18:05.262Z,-3.40
2018-03-03T10:20:36.478Z,-3.40
2018-03-03T10:23:08.385Z,-3.40
2018-03-03T10:25:39.725Z,-3.40
2018-03-03T10:28:10.977Z,-3.50
2018-03-03T10:30:42.204Z,-3.50
2018-03-03T10:33:13.454Z,-3.50
2018-03-03T10:35:44.640Z,-3.40
2018-03-03T10:38:15.997Z,-3.20
2018-03-03T10:40:47.918Z,-3.40
2018-03-03T10:43:19.248Z,-3.40
2018-03-03T10:45:50.494Z,-3.20
2018-03-03T10:48:21.792Z,-3.20
2018-03-03T10:50:53.004Z,-3.00
2018-03-03T10:53:24.231Z,-2.80
2018-03-03T10:55:55.416Z,-2.60
2018-03-03T10:58:27.562Z,-2.90
2018-03-03T11:00:59.336Z,-2.90
2018-03-03T11:03:31.327Z,-2.80
2018-03-03T11:06:03.371Z,-2.80
2018-03-03T11:08:34.553Z,-2.80
2018-03-03T11:11:06.101Z,-2.80
2018-03-03T11:13:37.291Z,-2.70
2018-03-03T11:16:08.621Z,-2.70
2018-03-03T11:18:39.830Z,-2.50
2018-03-03T11:21:11.882Z,-2.60
2018-03-03T11:23:43.130Z,-2.60
2018-03-03T11:26:15.150Z,-2.30
2018-03-03T11:28:46.809Z,-2.30
2018-03-03T11:31:18.021Z,-2.40
2018-03-03T11:33:49.261Z,-2.20
2018-03-03T11:36:20.440Z,-2.00
2018-03-03T11:38:51.771Z,-1.80
2018-03-03T11:41:22.962Z,-1.80
2018-03-03T11:43:54.224Z,-2.00
2018-03-03T11:46:25.410Z,-2.00
2018-03-03T11:48:56.934Z,-2.00
2018-03-03T11:51:28.183Z,-1.90
2018-03-03T11:53:59.488Z,-2.10
2018-03-03T11:56:31.419Z,-1.80
2018-03-03T11:59:02.793Z,-1.80
2018-03-03T12:01:34.784Z,-1.50
2018-03-03T12:04:06.024Z,-1.50
2018-03-03T12:06:37.281Z,-1.50
2018-03-03T12:09:08.517Z,-1.40
2018-03-03T12:11:39.788Z,-1.50
2018-03-03T12:14:11.043Z,-1.70
2018-03-03T12:16:42.564Z,-1.40
2018-03-03T12:19:13.836Z,-1.50
2018-03-03T12:21:45.152Z,-1.80
2018-03-03T12:24:16.423Z,-1.80
2018-03-03T12:26:47.679Z,-1.70
2018-03-03T12:29:18.984Z,-1.70
2018-03-03T12:31:50.204Z,-1.40
2018-03-03T12:34:21.602Z,-1.20
2018-03-03T12:36:52.803Z,-1.20
2018-03-03T12:39:24.078Z,-1.40
2018-03-03T12:41:55.820Z,-1.50
2018-03-03T12:44:27.102Z,-1.60
2018-03-03T12:46:58.365Z,-1.40
2018-03-03T12:49:30.329Z,-1.30
2018-03-03T12:52:02.293Z,-1.30
2018-03-03T12:54:34.247Z,-1.30
2018-03-03T12:57:05.463Z,-1.30
2018-03-03T12:59:36.734Z,-1.20
2018-03-03T13:02:07.980Z,-1.10
2018-03-03T13:04:39.269Z,-0.90
2018-03-03T13:07:10.528Z,-0.90
2018-03-03T13:09:41.759Z,-1.00
2018-03-03T13:12:12.956Z,-0.80
2018-03-03T13:14:44.494Z,-0.90
2018-03-03T13:17:15.697Z,-1.10
2018-03-03T13:19:46.993Z,-0.90
2018-03-03T13:22:18.197Z,-1.00
2018-03-03T13:24:49.854Z,-1.00
2018-03-03T13:27:21.155Z,-1.20
2018-03-03T13:29:53.490Z,-1.30
2018-03-03T13:32:25.449Z,-1.30
2018-03-03T13:34:56.708Z,-1.30
2018-03-03T13:37:27.939Z,-1.30
2018-03-03T13:39:59.159Z,-1.30
2018-03-03T13:42:30.380Z,-1.20
2018-03-03T13:45:01.764Z,-1.20
2018-03-03T13:47:33.320Z,-1.10
2018-03-03T13:50:04.604Z,-1.10
2018-03-03T13:52:36.941Z,-0.90
2018-03-03T13:55:08.133Z,-0.90
2018-03-03T13:57:40.486Z,-0.80
2018-03-03T14:00:12.512Z,-0.70
2018-03-03T14:02:43.962Z,-0.70
2018-03-03T14:05:15.167Z,-0.80
2018-03-03T14:07:46.529Z,-1.00
2018-03-03T14:10:17.712Z,-1.20
2018-03-03T14:12:48.957Z,-1.00
2018-03-03T14:15:20.216Z,-0.90
2018-03-03T14:17:51.436Z,-1.00
2018-03-03T14:20:23.063Z,-1.00
2018-03-03T14:22:54.264Z,-0.60
2018-03-03T14:25:25.606Z,-0.70
2018-03-03T14:27:57.542Z,-0.70
2018-03-03T14:30:28.792Z,-0.70
2018-03-03T14:33:00.040Z,-0.70
2018-03-03T14:35:31.307Z,-0.60
2018-03-03T14:38:03.244Z,-0.40
2018-03-03T14:40:35.507Z,-0.60
2018-03-03T14:43:06.748Z,-0.60
2018-03-03T14:45:38.046Z,-0.70
2018-03-03T14:48:09.647Z,-0.80
2018-03-03T14:50:40.842Z,-0.80
2018-03-03T14:53:12.150Z,-1.00
2018-03-03T14:55:43.326Z,-1.00
2018-03-03T14:58:15.337Z,-1.00
2018-03-03T15:00:46.544Z,-1.00
2018-03-03T15:03:17.849Z,-1.20
2018-03-03T15:05:49.087Z,-1.10
2018-03-03T15:08:20.712Z,-1.20
2018-03-03T15:10:51.931Z,-1.00
2018-03-03T15:13:23.899Z,-0.90
2018-03-03T15:15:55.121Z,-0.90
2018-03-03T15:18:26.346Z,-0.90
2018-03-03T15:20:57.688Z,-1.00
2018-03-03T15:23:28.890Z,-0.90
2018-03-03T15:26:00.095Z,-1.10
2018-03-03T15:28:32.315Z,-1.10
2018-03-03T15:31:03.551Z,-1.10
2018-03-03T15:33:34.756Z,-1.20
2018-03-03T15:36:06.008Z,-1.00
2018-03-03T15:38:37.593Z,-1.00
2018-03-03T15:41:08.829Z,-0.90
2018-03-03T15:43:40.410Z,-0.90
2018-03-03T15:46:11.698Z,-0.80
2018-03-03T15:48:43.282Z,-0.70
2018-03-03T15:51:14.445Z,-0.70
2018-03-03T15:53:46.030Z,-0.90
2018-03-03T15:56:17.967Z,-0.90
2018-03-03T15:58:49.226Z,-0.90
2018-03-03T16:01:20.575Z,-0.80
2018-03-03T16:03:51.762Z,-0.60
2018-03-03T16:06:23.030Z,-0.60
2018-03-03T16:08:54.241Z,-0.80
2018-03-03T16:11:25.494Z,-1.00
2018-03-03T16:13:56.970Z,-0.90
2018-03-03T16:16:28.174Z,-1.00
2018-03-03T16:18:59.432Z,-1.10
2018-03-03T16:21:30.724Z,-1.00
2018-03-03T16:24:01.912Z,-0.90
2018-03-03T16:26:33.173Z,-0.80
2018-03-03T16:29:04.400Z,-0.80
2018-03-03T16:31:35.605Z,-0.80
2018-03-03T16:34:06.844Z,-0.90
2018-03-03T16:36:38.077Z,-1.00
2018-03-03T16:39:09.264Z,-1.00
2018-03-03T16:41:40.529Z,-1.10
2018-03-03T16:44:11.776Z,-1.00
2018-03-03T16:46:42.993Z,-1.10
2018-03-03T16:49:14.904Z,-1.10
2018-03-03T16:51:46.174Z,-1.20
2018-03-03T16:54:17.372Z,-1.10
2018-03-03T16:56:48.602Z,-1.00
2018-03-03T16:59:19.779Z,-1.10
2018-03-03T17:01:51.080Z,-1.00
2018-03-03T17:04:22.272Z,-1.20
2018-03-03T17:06:53.623Z,-1.20
2018-03-03T17:09:24.844Z,-1.10
2018-03-03T17:11:56.067Z,-1.20
2018-03-03T17:14:27.511Z,-1.10
2018-03-03T17:16:59.525Z,-1.10
2018-03-03T17:19:30.724Z,-1.20
2018-03-03T17:22:02.105Z,-1.30
2018-03-03T17:24:33.365Z,-1.40
2018-03-03T17:27:04.608Z,-1.40
2018-03-03T17:29:35.865Z,-1.40
2018-03-03T17:32:07.099Z,-1.50
2018-03-03T17:34:38.344Z,-1.60
2018-03-03T17:37:09.675Z,-1.40
2018-03-03T17:39:40.930Z,-1.40
2018-03-03T17:42:12.188Z,-1.40
2018-03-03T17:44:44.948Z,-1.50
2018-03-03T17:47:16.179Z,-1.50
2018-03-03T17:49:47.379Z,-1.40
2018-03-03T17:52:19.373Z,-1.50
2018-03-03T17:54:50.596Z,-1.50
2018-03-03T17:57:21.826Z,-1.50
2018-03-03T17:59:53.784Z,-1.50
2018-03-03T18:02:25.840Z,-1.50
2018-03-03T18:04:57.036Z,-1.60
2018-03-03T18:07:28.591Z,-1.60
2018-03-03T18:09:59.777Z,-1.60
2018-03-03T18:12:34.716Z,-1.70
2018-03-03T18:15:07.277Z,-1.70
2018-03-03T18:17:38.572Z,-1.70
2018-03-03T18:20:10.046Z,-1.60
2018-03-03T18:22:41.325Z,-1.70
2018-03-03T18:25:12.562Z,-1.80
2018-03-03T18:27:43.821Z,-1.80
2018-03-03T18:30:15.819Z,-1.80
2018-03-03T18:32:47.075Z,-1.80
2018-03-03T18:35:18.640Z,-1.70
2018-03-03T18:37:49.816Z,-1.70
2018-03-03T18:40:21.416Z,-1.80
2018-03-03T18:42:53.251Z,-1.80
2018-03-03T18:45:24.492Z,-1.70
2018-03-03T18:47:56.447Z,-1.90
2018-03-03T18:50:28.452Z,-1.90
2018-03-03T18:52:59.608Z,-1.90
2018-03-03T18:55:30.831Z,-1.80
2018-03-03T18:58:02.085Z,-1.90
2018-03-03T19:00:33.353Z,-1.90
2018-03-03T19:03:04.661Z,-2.10
2018-03-03T19:05:36.624Z,-2.00
2018-03-03T19:08:07.881Z,-2.00
2018-03-03T19:10:39.099Z,-1.90
2018-03-03T19:13:10.272Z,-2.00
2018-03-03T19:15:41.522Z,-2.10
2018-03-03T19:18:12.777Z,-2.10
2018-03-03T19:20:44.051Z,-2.00
2018-03-03T19:23:15.417Z,-2.10
2018-03-03T19:25:46.608Z,-2.00
2018-03-03T19:28:17.853Z,-2.00
2018-03-03T19:30:49.226Z,-2.10
2018-03-03T19:33:20.501Z,-2.10
2018-03-03T19:35:51.716Z,-2.10
2018-03-03T19:38:23.036Z,-2.20
2018-03-03T19:40:54.281Z,-2.30
2018-03-03T19:43:25.515Z,-2.20
2018-03-03T19:45:56.754Z,-2.20
2018-03-03T19:48:27.989Z,-2.40
2018-03-03T19:50:59.245Z,-2.30
2018-03-03T19:53:30.481Z,-2.30
2018-03-03T19:56:02.104Z,-2.20
2018-03-03T19:58:33.280Z,-2.30
2018-03-03T20:01:04.828Z,-2.30
2018-03-03T20:03:36.074Z,-2.40
2018-03-03T20:06:07.440Z,-2.20
2018-03-03T20:08:38.634Z,-2.30
2018-03-03T20:11:10.644Z,-2.20
2018-03-03T20:13:41.867Z,-2.20
2018-03-03T20:16:13.439Z,-2.40
2018-03-03T20:18:44.668Z,-2.50
2018-03-03T20:21:16.003Z,-2.60
2018-03-03T20:23:47.235Z,-2.40
2018-03-03T20:26:18.423Z,-2.30
2018-03-03T20:28:49.853Z,-2.40
2018-03-03T20:31:21.137Z,-2.50
2018-03-03T20:33:52.321Z,-2.50
2018-03-03T20:36:23.617Z,-2.50
2018-03-03T20:38:55.121Z,-2.50
2018-03-03T20:41:26.886Z,-2.50
2018-03-03T20:43:58.181Z,-2.60
2018-03-03T20:46:29.618Z,-2.60
2018-03-03T20:49:00.895Z,-2.50
2018-03-03T20:51:32.954Z,-2.50
2018-03-03T20:54:05.132Z,-2.60
2018-03-03T20:56:37.445Z,-2.50
2018-03-03T20:59:09.114Z,-2.50
2018-03-03T21:01:40.305Z,-2.70
2018-03-03T21:04:11.565Z,-2.60
2018-03-03T21:06:42.738Z,-2.70
2018-03-03T21:09:14.075Z,-2.70
2018-03-03T21:11:50.306Z,-2.60
2018-03-03T21:14:22.079Z,-2.50
2018-03-03T21:16:53.269Z,-2.80
2018-03-03T21:19:24.734Z,-2.90
2018-03-03T21:21:56.739Z,-2.80
2018-03-03T21:24:28.069Z,-2.80
2018-03-03T21:26:59.697Z,-2.80
2018-03-03T21:29:31.656Z,-2.80
2018-03-03T21:32:03.679Z,-2.80
2018-03-03T21:34:35.247Z,-2.80
2018-03-03T21:37:06.521Z,-2.70
2018-03-03T21:39:38.751Z,-2.90
2018-03-03T21:42:09.958Z,-2.90
2018-03-03T21:44:41.170Z,-3.10
2018-03-03T21:47:13.282Z,-3.00
2018-03-03T21:49:44.586Z,-3.10
2018-03-03T21:52:16.843Z,-2.90
2018-03-03T21:54:48.078Z,-2.90
2018-03-03T21:57:19.997Z,-2.70
2018-03-03T21:59:51.550Z,-2.70
2018-03-03T22:02:22.810Z,-2.80
2018-03-03T22:04:54.086Z,-2.80
2018-03-03T22:07:25.528Z,-2.90
2018-03-03T22:09:56.761Z,-2.80
2018-03-03T22:12:27.948Z,-2.70
2018-03-03T22:14:59.283Z,-2.80
2018-03-03T22:17:31.062Z,-2.80
2018-03-03T22:20:02.432Z,-2.90
2018-03-03T22:22:33.680Z,-3.00
2018-03-03T22:25:04.941Z,-2.90
2018-03-03T22:27:36.144Z,-3.10
2018-03-03T22:30:07.337Z,-3.10
2018-03-03T22:32:38.549Z,-3.10
2018-03-03T22:35:09.731Z,-3.10
2018-03-03T22:37:41.870Z,-3.10
2018-03-03T22:40:13.219Z,-3.20
2018-03-03T22:42:44.450Z,-3.20
2018-03-03T22:45:17.135Z,-3.30
2018-03-03T22:47:49.142Z,-3.40
2018-03-03T22:50:20.536Z,-3.40
2018-03-03T22:52:51.728Z,-3.50
2018-03-03T22:55:23.056Z,-3.30
2018-03-03T22:57:54.226Z,-3.40
2018-03-03T23:00:25.578Z,-3.30
2018-03-03T23:02:56.770Z,-3.40
2018-03-03T23:05:28.288Z,-3.30
2018-03-03T23:07:59.860Z,-3.20
2018-03-03T23:10:31.021Z,-3.40
2018-03-03T23:13:02.252Z,-3.40
2018-03-03T23:15:33.457Z,-3.40
2018-03-03T23:18:04.667Z,-3.50
2018-03-03T23:20:35.808Z,-3.50
2018-03-03T23:23:07.107Z,-3.60
2018-03-03T23:25:38.333Z,-3.50
2018-03-03T23:28:10.443Z,-3.60
2018-03-03T23:30:41.610Z,-3.60
2018-03-03T23:33:12.819Z,-3.50
2018-03-03T23:35:43.995Z,-3.50
2018-03-03T23:38:15.187Z,-3.50
2018-03-03T23:40:46.363Z,-3.60
2018-03-03T23:43:17.889Z,-3.60
2018-03-03T23:45:49.155Z,-3.60
2018-03-03T23:48:20.574Z,-3.60
2018-03-03T23:50:51.747Z,-3.70
2018-03-03T23:53:22.988Z,-3.70
2018-03-03T23:55:54.187Z,-3.70
2018-03-03T23:58:25.687Z,-3.60
